Time;durP1;ratioP1;P1;durP2;ratioP2;P2;SDS_P1;SDS_P2;PMS_P1;PMS_P2;Temp;Humidity;BMP_temperature;BMP_pressure;BME280_temperature;BME280_humidity;BME280_pressure;Samples;Min_cycle;Max_cycle;Signal;HPM_P1;HPM_P2
2022/07/05 00:01:08;;;;;;;;;;;;;;;20.51;81.95;95340.47;5140930;27;1076;-49
2022/07/05 00:03:34;;;;;;;;;;;;;;;20.34;81.81;95345.59;5140745;27;1032;-49
2022/07/05 00:06:00;;;;;;;;;;;;;;;20.47;81.26;95350.94;5140563;27;1008;-49
2022/07/05 00:08:26;;;;;;;;;;;;;;;20.52;80.72;95344.03;5140509;27;1905;-49
2022/07/05 00:10:52;;;;;;;;;;;;;;;20.75;80.15;95341.59;5140696;27;1055;-49
2022/07/05 00:13:19;;;;;;;;;;;;;;;20.72;80.23;95342.03;5140265;27;1068;-49
2022/07/05 00:15:45;;;;;;;;;;;;;;;20.57;81.35;95342.31;5140486;27;1044;-49
2022/07/05 00:18:11;;;;;;;;;;;;;;;20.50;81.70;95343.41;5140459;27;1005;-48
2022/07/05 00:20:37;;;;;;;;;;;;;;;20.30;82.49;95344.38;5140523;27;1095;-49
2022/07/05 00:23:03;;;;;;;;;;;;;;;20.48;81.51;95343.63;5136682;27;1265;-49
2022/07/05 00:25:29;;;;;;;;;;;;;;;20.56;81.67;95337.91;5137263;27;1036;-49
2022/07/05 00:27:55;;;;;;;;;;;;;;;20.59;81.93;95333.94;5136921;27;1984;-49
2022/07/05 00:30:21;;;;;;;;;;;;;;;20.29;82.06;95332.66;5137343;27;1048;-49
2022/07/05 00:32:47;;;;;;;;;;;;;;;20.11;83.04;95335.28;5136937;27;1838;-49
2022/07/05 00:35:13;;;;;;;;;;;;;;;20.03;83.19;95338.22;5137025;27;953;-49
2022/07/05 00:37:39;;;;;;;;;;;;;;;19.84;84.29;95335.38;5136978;27;1035;-49
2022/07/05 00:40:07;;;;;;;;;;;;;;;19.84;84.64;95339.97;5137285;27;1318;-49
2022/07/05 00:42:33;;;;;;;;;;;;;;;20.05;83.76;95334.25;5142347;27;1168;-49
2022/07/05 00:44:59;;;;;;;;;;;;;;;20.21;83.62;95334.81;5157583;27;1946;-49
2022/07/05 00:47:26;;;;;;;;;;;;;;;20.02;84.12;95337.38;5157404;27;1057;-49
2022/07/05 00:49:52;;;;;;;;;;;;;;;20.00;83.77;95344.09;5157411;27;1978;-49
2022/07/05 00:52:18;;;;;;;;;;;;;;;19.94;84.67;95340.34;5157208;27;1036;-49
2022/07/05 00:54:44;;;;;;;;;;;;;;;20.01;84.02;95334.88;5157255;27;1024;-49
2022/07/05 00:57:10;;;;;;;;;;;;;;;20.07;84.18;95339.44;5157148;27;1040;-49
2022/07/05 00:59:36;;;;;;;;;;;;;;;20.05;84.30;95341.53;5157296;27;995;-49
2022/07/05 01:02:02;;;;;;;;;;;;;;;20.02;83.77;95337.38;5156996;27;1288;-49
2022/07/05 01:04:28;;;;;;;;;;;;;;;20.05;83.68;95330.69;5157181;27;1031;-49
2022/07/05 01:06:54;;;;;;;;;;;;;;;20.03;84.11;95332.78;5138929;27;1004;-49
2022/07/05 01:09:22;;;;;;;;;;;;;;;20.07;83.30;95326.72;5156812;27;1914;-49
2022/07/05 01:11:49;;;;;;;;;;;;;;;20.09;83.08;95323.81;5156948;27;1024;-49
2022/07/05 01:14:19;;;;;;;;;;;;;;;19.79;83.71;95331.66;5156707;27;1063;-48
2022/07/05 01:16:45;;;;;;;;;;;;;;;19.58;84.82;95325.41;5156849;27;1027;-49
2022/07/05 01:19:12;;;;;;;;;;;;;;;19.65;85.23;95330.81;5156774;27;1043;-49
2022/07/05 01:21:42;;;;;;;;;;;;;;;19.65;84.94;95330.81;5156807;27;1094;-49
2022/07/05 01:24:09;;;;;;;;;;;;;;;19.70;84.35;95339.97;5156597;27;1022;-49
2022/07/05 01:26:36;;;;;;;;;;;;;;;19.57;84.48;95331.88;5156640;27;1154;-49
2022/07/05 01:29:02;;;;;;;;;;;;;;;19.45;86.07;95337.13;5156558;27;1984;-48
2022/07/05 01:31:29;;;;;;;;;;;;;;;19.55;85.60;95336.69;5156752;27;997;-49
2022/07/05 01:33:55;;;;;;;;;;;;;;;19.78;84.49;95346.25;5155208;27;1031;-49
2022/07/05 01:36:21;;;;;;;;;;;;;;;19.89;84.48;95342.88;5156322;27;1047;-49
2022/07/05 01:38:48;;;;;;;;;;;;;;;19.79;85.08;95351.47;5156315;27;1090;-49
2022/07/05 01:41:14;;;;;;;;;;;;;;;19.78;85.19;95349.78;5156290;27;968;-49
2022/07/05 01:43:40;;;;;;;;;;;;;;;19.59;84.74;95347.94;5141120;27;1168;-49
2022/07/05 01:46:08;;;;;;;;;;;;;;;19.44;85.63;95346.28;5135476;27;1060;-49
2022/07/05 01:48:35;;;;;;;;;;;;;;;19.36;85.98;95345.69;5135484;27;1897;-49
2022/07/05 01:51:04;;;;;;;;;;;;;;;19.44;85.73;95345.47;5135376;27;1103;-49
2022/07/05 01:53:31;;;;;;;;;;;;;;;19.47;85.50;95347.75;5135337;27;959;-50
2022/07/05 01:55:58;;;;;;;;;;;;;;;19.49;85.47;95348.38;5135343;27;1055;-49
2022/07/05 01:58:24;;;;;;;;;;;;;;;19.43;84.96;95354.66;5135513;27;969;-49
2022/07/05 02:00:52;;;;;;;;;;;;;;;19.28;86.17;95346.75;5135246;27;1088;-48
2022/07/05 02:03:18;;;;;;;;;;;;;;;19.42;85.11;95347.56;5135379;27;971;-48
2022/07/05 02:05:45;;;;;;;;;;;;;;;19.54;84.37;95348.59;5134928;27;982;-48
2022/07/05 02:08:11;;;;;;;;;;;;;;;19.65;84.16;95347.94;5135057;27;1988;-49
2022/07/05 02:10:38;;;;;;;;;;;;;;;19.66;84.26;95340.63;5134895;27;1053;-49
2022/07/05 02:13:05;;;;;;;;;;;;;;;19.65;84.39;95341.66;5135212;27;969;-50
2022/07/05 02:15:31;;;;;;;;;;;;;;;19.51;85.18;95344.41;5135131;27;1233;-49
2022/07/05 02:17:57;;;;;;;;;;;;;;;19.47;85.10;95347.75;5135168;27;1020;-49
2022/07/05 02:20:23;;;;;;;;;;;;;;;19.50;84.81;95350.03;5134727;27;1062;-49
2022/07/05 02:22:49;;;;;;;;;;;;;;;19.56;84.75;95346.50;5134797;27;1084;-49
2022/07/05 02:25:15;;;;;;;;;;;;;;;19.38;85.34;95347.13;5134588;27;1051;-48
2022/07/05 02:27:41;;;;;;;;;;;;;;;19.24;86.08;95346.34;5134988;27;1982;-49
2022/07/05 02:30:08;;;;;;;;;;;;;;;19.13;86.58;95357.81;5134440;27;1032;-49
2022/07/05 02:32:34;;;;;;;;;;;;;;;19.14;86.87;95356.75;5134815;27;1129;-49
2022/07/05 02:35:00;;;;;;;;;;;;;;;19.22;86.61;95355.72;5134353;27;976;-49
2022/07/05 02:37:26;;;;;;;;;;;;;;;19.25;86.13;95345.28;5134766;27;992;-49
2022/07/05 02:39:52;;;;;;;;;;;;;;;19.06;86.68;95344.25;5116215;27;957;-48
2022/07/05 02:42:18;;;;;;;;;;;;;;;19.19;86.58;95353.44;5138178;27;1160;-49
2022/07/05 02:44:44;;;;;;;;;;;;;;;19.16;86.49;95360.13;5154951;27;1051;-49
2022/07/05 02:47:10;;;;;;;;;;;;;;;19.09;86.58;95359.28;5155356;27;1055;-49
2022/07/05 02:49:37;;;;;;;;;;;;;;;19.16;86.22;95360.13;5155150;27;1992;-49
2022/07/05 02:52:03;;;;;;;;;;;;;;;19.21;86.04;95362.19;5155150;27;1012;-48
2022/07/05 02:54:30;;;;;;;;;;;;;;;19.02;85.92;95358.44;5155023;27;1000;-50
2022/07/05 02:56:56;;;;;;;;;;;;;;;18.92;86.20;95358.84;5155336;27;1011;-49
2022/07/05 02:59:22;;;;;;;;;;;;;;;19.09;85.30;95360.09;5155217;27;1056;-49
2022/07/05 03:01:48;;;;;;;;;;;;;;;19.26;84.77;95352.38;5154936;27;993;-49
2022/07/05 03:04:14;;;;;;;;;;;;;;;19.06;85.81;95351.56;5154960;27;964;-49
2022/07/05 03:06:40;;;;;;;;;;;;;;;18.78;87.02;95351.72;5155043;27;975;-49
2022/07/05 03:09:06;;;;;;;;;;;;;;;18.65;87.56;95350.69;5154855;27;1910;-49
2022/07/05 03:11:32;;;;;;;;;;;;;;;18.67;87.89;95362.13;5155115;27;1039;-49
2022/07/05 03:13:58;;;;;;;;;;;;;;;18.84;87.31;95359.06;5155010;27;1094;-49
2022/07/05 03:16:24;;;;;;;;;;;;;;;18.86;87.01;95360.53;5154751;27;1047;-49
2022/07/05 03:18:50;;;;;;;;;;;;;;;18.97;86.66;95355.50;5155077;27;1040;-49
2022/07/05 03:21:17;;;;;;;;;;;;;;;19.13;85.50;95357.00;5154666;27;1071;-48
2022/07/05 03:23:43;;;;;;;;;;;;;;;19.11;86.20;95347.19;5154747;27;1118;-49
2022/07/05 03:26:09;;;;;;;;;;;;;;;19.09;86.04;95349.25;5154844;27;1044;-49
2022/07/05 03:28:35;;;;;;;;;;;;;;;19.07;86.29;95350.53;5155011;27;1915;-49
2022/07/05 03:31:01;;;;;;;;;;;;;;;19.05;86.46;95355.31;5154580;27;1060;-49
2022/07/05 03:33:27;;;;;;;;;;;;;;;18.91;87.45;95363.44;5154898;27;996;-50
2022/07/05 03:35:53;;;;;;;;;;;;;;;18.95;87.13;95363.84;5154477;27;1035;-48
2022/07/05 03:38:19;;;;;;;;;;;;;;;19.07;86.62;95355.94;5154650;27;1019;-49
2022/07/05 03:40:45;;;;;;;;;;;;;;;19.06;86.65;95359.69;5154829;27;957;-49
2022/07/05 03:43:11;;;;;;;;;;;;;;;18.97;87.04;95350.94;5143562;27;1974;-49
2022/07/05 03:45:37;;;;;;;;;;;;;;;18.91;87.87;95360.75;5134016;28;1036;-49
2022/07/05 03:48:03;;;;;;;;;;;;;;;18.92;88.38;95356.16;5133853;28;1905;-49
2022/07/05 03:50:29;;;;;;;;;;;;;;;19.20;87.93;95366.78;5133794;28;1079;-49
2022/07/05 03:52:55;;;;;;;;;;;;;;;19.41;86.67;95367.59;5133926;28;946;-49
2022/07/05 03:55:22;;;;;;;;;;;;;;;19.67;85.71;95364.81;5133790;28;1316;-49
2022/07/05 03:57:48;;;;;;;;;;;;;;;19.89;85.89;95367.28;5135845;27;969;-48
2022/07/05 04:00:14;;;;;;;;;;;;;;;19.87;85.88;95358.53;5137773;27;1052;-49
2022/07/05 04:02:41;;;;;;;;;;;;;;;19.79;85.62;95366.91;5137689;27;1059;-49
2022/07/05 04:05:07;;;;;;;;;;;;;;;19.74;86.60;95364.00;5137377;27;1058;-49
2022/07/05 04:07:33;;;;;;;;;;;;;;;19.79;86.19;95375.88;5137485;27;973;-49
2022/07/05 04:10:00;;;;;;;;;;;;;;;19.85;87.38;95385.03;5137791;27;1893;-49
2022/07/05 04:12:26;;;;;;;;;;;;;;;19.99;86.69;95389.38;5137572;27;1116;-49
2022/07/05 04:14:52;;;;;;;;;;;;;;;20.15;86.73;95382.66;5137606;27;1007;-49
2022/07/05 04:17:18;;;;;;;;;;;;;;;20.20;86.24;95384.69;5137305;27;1011;-49
2022/07/05 04:19:44;;;;;;;;;;;;;;;20.45;85.54;95373.91;5137372;27;1095;-49
2022/07/05 04:22:10;;;;;;;;;;;;;;;20.82;84.22;95374.16;5136915;27;1222;-49
2022/07/05 04:25:16;;;;;;;;;;;;;;;21.08;82.99;95373.13;5137582;27;992;-49
2022/07/05 04:27:22;;;;;;;;;;;;;;;21.26;82.82;95367.72;5136951;27;1530;-49
2022/07/05 04:29:48;;;;;;;;;;;;;;;21.39;82.89;95368.69;5137244;27;1962;-49
2022/07/05 04:32:14;;;;;;;;;;;;;;;21.57;82.76;95365.19;5136915;27;1209;-49
2022/07/05 04:34:40;;;;;;;;;;;;;;;21.56;82.87;95361.63;5136875;27;1016;-49
2022/07/05 04:37:06;;;;;;;;;;;;;;;21.42;83.84;95363.63;5137037;27;1032;-49
2022/07/05 04:39:32;;;;;;;;;;;;;;;21.37;82.77;95366.19;5137268;27;1102;-49
2022/07/05 04:41:58;;;;;;;;;;;;;;;21.56;81.74;95364.34;5137692;27;1185;-49
2022/07/05 04:44:24;;;;;;;;;;;;;;;21.76;81.80;95363.31;5157722;27;1044;-49
2022/07/05 04:46:50;;;;;;;;;;;;;;;21.83;82.01;95367.66;5157506;27;1003;-49
2022/07/05 04:49:16;;;;;;;;;;;;;;;21.98;81.00;95364.53;5157373;27;2029;-49
2022/07/05 04:51:42;;;;;;;;;;;;;;;22.13;79.58;95366.84;5157374;27;1072;-49
2022/07/05 04:54:08;;;;;;;;;;;;;;;22.16;79.92;95366.41;5157477;27;958;-49
2022/07/05 04:56:34;;;;;;;;;;;;;;;22.11;79.49;95374.44;5157569;27;1022;-49
2022/07/05 04:59:00;;;;;;;;;;;;;;;22.11;79.63;95376.31;5157198;27;1088;-49
2022/07/05 05:01:26;;;;;;;;;;;;;;;22.17;79.54;95367.25;5157411;27;1065;-49
2022/07/05 05:03:52;;;;;;;;;;;;;;;22.25;78.41;95371.53;5157136;27;1036;-49
2022/07/05 05:06:18;;;;;;;;;;;;;;;22.39;78.42;95376.63;5157263;27;1024;-49
2022/07/05 05:08:44;;;;;;;;;;;;;;;22.44;77.54;95377.81;5156542;27;1974;-49
2022/07/05 05:11:10;;;;;;;;;;;;;;;22.47;77.37;95383.66;5157058;27;1945;-48
2022/07/05 05:13:36;;;;;;;;;;;;;;;22.63;77.29;95382.16;5157076;27;1096;-49
2022/07/05 05:16:03;;;;;;;;;;;;;;;22.70;76.75;95390.25;5156985;27;1141;-49
2022/07/05 05:18:29;;;;;;;;;;;;;;;22.64;77.32;95381.13;5156794;27;977;-48
2022/07/05 05:20:55;;;;;;;;;;;;;;;22.69;75.70;95381.25;5157235;27;1011;-49
2022/07/05 05:23:22;;;;;;;;;;;;;;;22.72;76.96;95383.50;5156556;27;1241;-49
2022/07/05 05:25:48;;;;;;;;;;;;;;;22.75;74.76;95385.78;5138722;27;1079;-49
2022/07/05 05:28:14;;;;;;;;;;;;;;;22.90;76.15;95381.81;5156624;27;1910;-48
2022/07/05 05:30:41;;;;;;;;;;;;;;;23.08;75.57;95375.47;5156741;27;1320;-49
2022/07/05 05:33:07;;;;;;;;;;;;;;;23.11;73.75;95380.47;5156373;27;1230;-49
2022/07/05 05:35:33;;;;;;;;;;;;;;;23.24;74.03;95387.56;5156452;27;1055;-49
2022/07/05 05:37:59;;;;;;;;;;;;;;;23.26;74.89;95385.44;5156442;27;1044;-50
2022/07/05 05:40:25;;;;;;;;;;;;;;;23.39;74.06;95387.94;5156732;27;1063;-49
2022/07/05 05:42:52;;;;;;;;;;;;;;;23.50;74.67;95380.84;5148181;27;1144;-49
2022/07/05 05:45:19;;;;;;;;;;;;;;;23.52;73.51;95376.84;5135721;27;1094;-49
2022/07/05 05:47:50;;;;;;;;;;;;;;;23.70;73.45;95385.97;5135458;27;980;-50
2022/07/05 05:50:21;;;;;;;;;;;;;;;23.81;72.27;95385.16;5135801;27;968;-49
2022/07/05 05:52:47;;;;;;;;;;;;;;;24.07;71.39;95393.91;5135441;27;1039;-50
2022/07/05 05:55:13;;;;;;;;;;;;;;;24.16;73.39;95379.63;5135406;27;1064;-50
2022/07/05 05:57:39;;;;;;;;;;;;;;;24.21;71.97;95391.72;5135205;27;1020;-49
2022/07/05 06:00:06;;;;;;;;;;;;;;;24.17;70.95;95400.44;5135383;27;1052;-49
2022/07/05 06:02:32;;;;;;;;;;;;;;;24.20;71.94;95403.75;5135269;27;1075;-50
2022/07/05 06:04:58;;;;;;;;;;;;;;;24.22;71.42;95396.97;5135404;27;1040;-50
2022/07/05 06:07:24;;;;;;;;;;;;;;;24.30;69.77;95388.41;5135066;27;1056;-49
2022/07/05 06:09:50;;;;;;;;;;;;;;;24.26;70.01;95392.66;5135341;27;1996;-49
2022/07/05 06:12:16;;;;;;;;;;;;;;;24.32;70.33;95394.47;5135248;27;1003;-49
2022/07/05 06:14:42;;;;;;;;;;;;;;;24.48;70.25;95392.84;5134986;27;1032;-49
2022/07/05 06:17:08;;;;;;;;;;;;;;;24.69;69.67;95388.66;5134954;27;1099;-49
2022/07/05 06:19:34;;;;;;;;;;;;;;;24.74;70.73;95387.94;5134554;27;1083;-49
2022/07/05 06:22:00;;;;;;;;;;;;;;;24.78;70.09;95380.91;5134902;27;1241;-49
2022/07/05 06:24:26;;;;;;;;;;;;;;;24.98;68.98;95380.44;5134987;27;995;-49
2022/07/05 06:26:52;;;;;;;;;;;;;;;25.14;68.67;95376.91;5135082;27;992;-49
2022/07/05 06:29:18;;;;;;;;;;;;;;;25.36;67.06;95373.44;5134605;27;1913;-49
2022/07/05 06:31:44;;;;;;;;;;;;;;;25.38;67.03;95367.72;5134858;27;1084;-49
2022/07/05 06:34:10;;;;;;;;;;;;;;;25.48;67.63;95374.19;5134408;27;1105;-49
2022/07/05 06:36:37;;;;;;;;;;;;;;;25.55;67.83;95371.28;5134982;27;980;-50
2022/07/05 06:39:03;;;;;;;;;;;;;;;25.61;65.43;95364.81;5134671;27;991;-50
2022/07/05 06:41:29;;;;;;;;;;;;;;;25.69;66.36;95372.59;5134717;27;1079;-50
2022/07/05 06:43:55;;;;;;;;;;;;;;;25.92;65.98;95380.91;5151690;27;1165;-49
2022/07/05 06:46:21;;;;;;;;;;;;;;;26.00;63.62;95372.25;5155301;27;1039;-50
2022/07/05 06:48:47;;;;;;;;;;;;;;;26.14;62.53;95372.69;5155404;27;1882;-49
2022/07/05 06:51:12;;;;;;;;;;;;;;;26.26;64.99;95382.47;5155476;27;960;-50
2022/07/05 06:53:38;;;;;;;;;;;;;;;26.25;63.41;95385.44;5155229;27;1023;-49
2022/07/05 06:56:05;;;;;;;;;;;;;;;26.29;63.45;95383.84;5155205;27;1051;-49
2022/07/05 06:58:31;;;;;;;;;;;;;;;26.29;62.33;95381.13;5154975;27;1079;-50
2022/07/05 07:00:57;;;;;;;;;;;;;;;26.38;63.20;95384.25;5155198;27;976;-49
2022/07/05 07:03:23;;;;;;;;;;;;;;;26.56;61.97;95372.13;5155155;27;1059;-50
2022/07/05 07:05:50;;;;;;;;;;;;;;;26.64;62.15;95371.72;5155113;27;1023;-49
2022/07/05 07:11:01;;;;;;;;;;;;;;;26.73;60.66;95375.66;5155066;27;1031;-49
2022/07/05 07:13:27;;;;;;;;;;;;;;;26.74;62.10;95371.81;5154906;27;991;-50
2022/07/05 07:15:53;;;;;;;;;;;;;;;26.81;59.66;95379.84;5155036;27;984;-50
2022/07/05 07:18:19;;;;;;;;;;;;;;;26.93;59.66;95369.53;5154954;27;1039;-50
2022/07/05 07:20:45;;;;;;;;;;;;;;;26.98;59.10;95364.13;5155106;27;1046;-50
2022/07/05 07:23:11;;;;;;;;;;;;;;;26.97;58.74;95367.94;5154674;27;1249;-50
2022/07/05 07:25:37;;;;;;;;;;;;;;;26.94;56.62;95371.22;5154965;27;1071;-50
2022/07/05 07:28:04;;;;;;;;;;;;;;;27.03;57.01;95358.69;5154694;27;1905;-49
2022/07/05 07:30:31;;;;;;;;;;;;;;;27.20;58.86;95366.78;5154685;27;1043;-49
2022/07/05 07:32:57;;;;;;;;;;;;;;;27.31;56.04;95364.16;5159084;27;1058;-50
2022/07/05 07:35:23;;;;;;;;;;;;;;;27.50;55.55;95361.84;5158771;27;1010;-49
2022/07/05 07:37:49;;;;;;;;;;;;;;;27.59;55.08;95360.28;5159156;27;1017;-50
2022/07/05 07:40:15;;;;;;;;;;;;;;;27.48;54.65;95364.84;5158742;27;972;-49
2022/07/05 07:42:41;;;;;;;;;;;;;;;27.51;54.39;95360.75;5152119;27;1204;-50
2022/07/05 07:45:08;;;;;;;;;;;;;;;27.65;53.63;95364.69;5137811;27;965;-50
2022/07/05 07:47:34;;;;;;;;;;;;;;;27.72;55.27;95359.81;5138066;27;1096;-50
2022/07/05 07:50:00;;;;;;;;;;;;;;;27.81;54.11;95352.75;5137891;27;1985;-50
2022/07/05 07:52:26;;;;;;;;;;;;;;;27.94;54.46;95356.94;5137940;27;1027;-50
2022/07/05 07:54:53;;;;;;;;;;;;;;;28.13;53.22;95357.31;5137822;27;996;-50
2022/07/05 07:57:19;;;;;;;;;;;;;;;28.36;52.49;95352.47;5137853;27;1006;-50
2022/07/05 07:59:45;;;;;;;;;;;;;;;28.49;52.75;95351.97;5137608;27;1046;-50
2022/07/05 08:02:11;;;;;;;;;;;;;;;28.52;55.71;95347.91;5137877;27;1048;-50
2022/07/05 08:04:37;;;;;;;;;;;;;;;28.43;52.03;95342.06;5137559;27;1059;-49
2022/07/05 08:07:03;;;;;;;;;;;;;;;28.56;52.57;95341.59;5137689;27;965;-50
2022/07/05 08:09:30;;;;;;;;;;;;;;;28.66;49.93;95335.28;5137493;27;1910;-50
2022/07/05 08:11:57;;;;;;;;;;;;;;;28.52;51.06;95343.25;5137647;27;967;-50
2022/07/05 08:14:23;;;;;;;;;;;;;;;28.56;50.10;95344.34;5137786;27;1032;-50
2022/07/05 08:16:49;;;;;;;;;;;;;;;28.64;48.25;95340.25;5137464;27;1194;-50
2022/07/05 08:22:01;;;;;;;;;;;;;;;28.84;48.82;95346.88;5137224;27;1316;-50
2022/07/05 08:24:27;;;;;;;;;;;;;;;28.94;47.30;95345.00;5137303;27;1048;-50
2022/07/05 08:26:53;;;;;;;;;;;;;;;29.09;47.86;95340.63;5137223;27;1227;-50
2022/07/05 08:29:19;;;;;;;;;;;;;;;29.23;48.71;95338.19;5137103;27;1990;-50
2022/07/05 08:31:47;;;;;;;;;;;;;;;29.24;48.25;95340.66;5137180;27;1024;-49
2022/07/05 08:34:13;;;;;;;;;;;;;;;29.34;46.61;95335.13;5136979;27;1067;-50
2022/07/05 08:36:42;;;;;;;;;;;;;;;29.34;46.10;95329.63;5137061;27;1039;-50
2022/07/05 08:39:09;;;;;;;;;;;;;;;29.38;48.69;95330.72;5137031;27;980;-50
2022/07/05 08:41:36;;;;;;;;;;;;;;;29.47;46.03;95327.44;5137119;27;1098;-50
2022/07/05 08:44:03;;;;;;;;;;;;;;;29.51;46.88;95323.03;5154627;27;1168;-49
2022/07/05 08:46:31;;;;;;;;;;;;;;;29.60;45.24;95321.38;5157692;27;1010;-50
2022/07/05 08:48:58;;;;;;;;;;;;;;;29.61;46.39;95317.50;5157711;27;1905;-50
2022/07/05 08:51:26;;;;;;;;;;;;;;;29.72;47.83;95313.63;5157451;27;1002;-50
2022/07/05 08:53:53;;;;;;;;;;;;;;;29.78;46.99;95312.56;5157478;27;1094;-50
2022/07/05 08:56:19;;;;;;;;;;;;;;;29.91;48.31;95316.63;5157504;27;967;-50
2022/07/05 08:58:45;;;;;;;;;;;;;;;30.00;48.45;95316.91;5157698;27;1027;-50
2022/07/05 09:01:12;;;;;;;;;;;;;;;29.88;45.12;95311.72;5157310;27;1106;-50
2022/07/05 09:03:39;;;;;;;;;;;;;;;29.74;45.02;95305.13;5157357;27;1078;-50
2022/07/05 09:06:12;;;;;;;;;;;;;;;29.75;47.12;95296.56;5156895;27;1052;-50
2022/07/05 09:08:39;;;;;;;;;;;;;;;29.77;44.34;95301.81;5157188;27;1980;-50
2022/07/05 09:11:07;;;;;;;;;;;;;;;29.97;45.81;95299.00;5156931;27;1020;-50
2022/07/05 09:13:34;;;;;;;;;;;;;;;30.07;44.19;95292.63;5157144;27;1099;-50
2022/07/05 09:16:00;;;;;;;;;;;;;;;30.16;46.32;95288.19;5156857;27;1083;-50
2022/07/05 09:18:45;;;;;;;;;;;;;;;30.32;44.91;95288.16;5157027;27;916;-50
2022/07/05 09:21:11;;;;;;;;;;;;;;;30.19;43.24;95281.28;5156653;27;1098;-49
2022/07/05 09:23:37;;;;;;;;;;;;;;;30.12;45.78;95276.03;5156836;27;1290;-50
2022/07/05 09:26:03;;;;;;;;;;;;;;;30.21;46.85;95275.47;5156588;27;945;-49
2022/07/05 09:28:29;;;;;;;;;;;;;;;30.37;46.67;95282.59;5156828;27;1909;-49
2022/07/05 09:30:55;;;;;;;;;;;;;;;30.34;42.72;95283.16;5156855;27;1039;-49
2022/07/05 09:33:21;;;;;;;;;;;;;;;30.29;44.60;95274.88;5156687;27;1110;-49
2022/07/05 09:35:54;;;;;;;;;;;;;;;30.27;44.69;95271.59;5156282;27;1082;-49
2022/07/05 09:38:21;;;;;;;;;;;;;;;30.40;45.18;95275.69;5156569;27;1040;-49
2022/07/05 09:40:53;;;;;;;;;;;;;;;30.42;44.54;95274.28;5156493;27;1099;-48
2022/07/05 09:43:29;;;;;;;;;;;;;;;30.46;45.59;95272.63;5144289;27;1168;-49
2022/07/05 09:45:56;;;;;;;;;;;;;;;30.53;45.95;95262.09;5135565;27;1051;-50
2022/07/05 09:48:22;;;;;;;;;;;;;;;30.58;44.04;95257.66;5135509;27;1997;-50
2022/07/05 09:50:52;;;;;;;;;;;;;;;30.53;44.18;95255.75;5135974;27;961;-50
2022/07/05 09:53:18;;;;;;;;;;;;;;;30.60;44.99;95248.00;5135430;27;1048;-50
2022/07/05 09:56:03;;;;;;;;;;;;;;;30.67;44.81;95253.19;5134859;27;967;-49
2022/07/05 09:58:29;;;;;;;;;;;;;;;30.65;44.54;95247.13;5135473;27;1028;-50
2022/07/05 10:00:56;;;;;;;;;;;;;;;30.72;45.21;95242.94;5135404;27;1068;-50
2022/07/05 10:03:22;;;;;;;;;;;;;;;30.79;45.85;95247.31;5135166;27;1011;-50
2022/07/05 10:05:48;;;;;;;;;;;;;;;30.84;44.21;95236.22;5135055;27;1012;-50
2022/07/05 10:08:15;;;;;;;;;;;;;;;30.82;43.79;95238.47;5135123;27;1982;-50
2022/07/05 10:10:43;;;;;;;;;;;;;;;30.78;44.73;95235.44;5135365;27;966;-50
2022/07/05 10:13:09;;;;;;;;;;;;;;;30.86;44.28;95232.06;5134959;27;1070;-50
2022/07/05 10:15:36;;;;;;;;;;;;;;;30.96;44.05;95236.69;5135067;27;1020;-50
2022/07/05 10:18:07;;;;;;;;;;;;;;;31.01;44.23;95227.56;5135125;27;995;-50
2022/07/05 10:20:36;;;;;;;;;;;;;;;30.98;42.84;95226.22;5135085;27;1960;-50
2022/07/05 10:23:06;;;;;;;;;;;;;;;30.99;45.56;95232.56;5134722;27;1262;-50
2022/07/05 10:25:32;;;;;;;;;;;;;;;31.00;43.73;95224.00;5134996;27;1085;-50
2022/07/05 10:27:58;;;;;;;;;;;;;;;31.07;44.51;95229.16;5134715;27;961;-51
2022/07/05 10:30:25;;;;;;;;;;;;;;;31.08;42.82;95217.84;5135130;27;992;-50
2022/07/05 10:32:51;;;;;;;;;;;;;;;31.09;43.38;95213.97;5134633;27;1035;-50
2022/07/05 10:35:17;;;;;;;;;;;;;;;31.16;43.66;95219.16;5134780;27;979;-50
2022/07/05 10:37:45;;;;;;;;;;;;;;;31.20;45.04;95220.22;5134578;27;1032;-50
2022/07/05 10:40:11;;;;;;;;;;;;;;;31.14;41.45;95216.69;5134672;27;1087;-50
2022/07/05 10:42:41;;;;;;;;;;;;;;;31.09;42.87;95202.94;5140501;27;1216;-50
2022/07/05 10:45:23;;;;;;;;;;;;;;;31.14;42.36;95202.06;5155584;27;968;-50
2022/07/05 10:48:08;;;;;;;;;;;;;;;31.12;41.11;95196.00;5155179;27;1938;-50
2022/07/05 10:50:54;;;;;;;;;;;;;;;31.09;41.21;95194.66;5155438;27;1042;-50
2022/07/05 10:53:24;;;;;;;;;;;;;;;31.05;40.21;95195.50;5155027;27;1072;-51
2022/07/05 10:55:54;;;;;;;;;;;;;;;31.06;40.77;95189.69;5155434;27;1022;-50
2022/07/05 10:58:21;;;;;;;;;;;;;;;31.14;42.65;95189.06;5154958;27;1098;-50
2022/07/05 11:00:49;;;;;;;;;;;;;;;31.14;42.29;95180.78;5155185;27;1024;-50
2022/07/05 11:03:37;;;;;;;;;;;;;;;31.06;39.85;95186.13;5154980;27;976;-50
2022/07/05 11:06:04;;;;;;;;;;;;;;;31.16;41.13;95185.19;5154415;27;1023;-51
2022/07/05 11:08:33;;;;;;;;;;;;;;;31.33;42.97;95189.16;5154975;27;1906;-51
2022/07/05 11:11:12;;;;;;;;;;;;;;;31.51;39.83;95184.03;5155153;27;964;-50
2022/07/05 11:13:44;;;;;;;;;;;;;;;31.47;39.94;95178.28;5154872;27;1102;-50
2022/07/05 11:16:23;;;;;;;;;;;;;;;31.52;40.62;95180.16;5154883;27;995;-50
2022/07/05 11:19:10;;;;;;;;;;;;;;;31.60;39.90;95182.25;5154840;27;1087;-50
2022/07/05 11:21:36;;;;;;;;;;;;;;;31.68;42.44;95176.13;5154631;27;1272;-50
2022/07/05 11:24:18;;;;;;;;;;;;;;;31.63;42.20;95178.94;5154735;27;1005;-50
2022/07/05 11:26:44;;;;;;;;;;;;;;;31.62;41.68;95176.44;5154916;27;996;-50
2022/07/05 11:29:29;;;;;;;;;;;;;;;31.51;41.40;95175.72;5154790;27;1910;-50
2022/07/05 11:32:05;;;;;;;;;;;;;;;31.54;41.27;95160.53;5154981;27;980;-50
2022/07/05 11:34:35;;;;;;;;;;;;;;;31.61;41.14;95167.34;5154545;27;1064;-50
2022/07/05 11:37:13;;;;;;;;;;;;;;;31.69;40.92;95155.63;5154656;27;1051;-50
2022/07/05 11:39:42;;;;;;;;;;;;;;;31.68;40.11;95151.25;5154985;27;979;-50
2022/07/05 11:42:09;;;;;;;;;;;;;;;31.71;39.91;95142.34;5152674;27;1204;-50
2022/07/05 11:44:36;;;;;;;;;;;;;;;31.65;39.17;95140.75;5133978;28;1047;-50
2022/07/05 11:47:02;;;;;;;;;;;;;;;31.73;40.28;95138.47;5115841;28;1019;-50
2022/07/05 11:49:28;;;;;;;;;;;;;;;31.78;39.37;95127.31;5133731;28;1984;-50
2022/07/05 11:52:01;;;;;;;;;;;;;;;31.77;39.38;95134.81;5134450;28;957;-51
2022/07/05 11:54:28;;;;;;;;;;;;;;;31.84;39.19;95123.41;5133807;28;1972;-50
2022/07/05 11:56:55;;;;;;;;;;;;;;;31.89;39.00;95121.41;5133946;28;1016;-50
2022/07/05 11:59:23;;;;;;;;;;;;;;;31.97;35.88;95125.44;5133718;28;985;-51
2022/07/05 12:01:49;;;;;;;;;;;;;;;32.03;37.86;95115.16;5133902;28;1016;-51
2022/07/05 12:04:22;;;;;;;;;;;;;;;32.10;36.92;95115.63;5115227;28;977;-50
2022/07/05 12:06:49;;;;;;;;;;;;;;;32.15;33.12;95111.94;5134072;28;1033;-50
2022/07/05 12:09:21;;;;;;;;;;;;;;;32.14;35.36;95102.81;5133626;28;1905;-50
2022/07/05 12:14:35;;;;;;;;;;;;;;;32.09;34.71;95095.41;5133586;28;1035;-50
2022/07/05 12:17:12;;;;;;;;;;;;;;;32.12;35.13;95090.41;5115569;27;1464;-50
2022/07/05 12:19:38;;;;;;;;;;;;;;;32.23;34.22;95100.19;5136474;27;1107;-50
2022/07/05 12:22:04;;;;;;;;;;;;;;;32.28;34.82;95102.88;5137325;27;1238;-50
2022/07/05 12:24:30;;;;;;;;;;;;;;;32.43;36.46;95099.06;5137301;27;1074;-50
2022/07/05 12:26:56;;;;;;;;;;;;;;;32.45;36.15;95105.94;5137424;27;964;-50
2022/07/05 12:29:22;;;;;;;;;;;;;;;32.36;36.53;95095.84;5136941;27;1905;-50
2022/07/05 12:32:01;;;;;;;;;;;;;;;32.24;36.96;95094.38;5137254;27;1027;-50
2022/07/05 12:34:27;;;;;;;;;;;;;;;32.32;37.60;95089.28;5136843;27;1015;-50
2022/07/05 12:36:53;;;;;;;;;;;;;;;32.35;38.00;95085.94;5137324;27;980;-50
2022/07/05 12:39:20;;;;;;;;;;;;;;;32.42;37.43;95086.34;5136949;27;1050;-50
2022/07/05 12:41:46;;;;;;;;;;;;;;;32.34;36.85;95076.78;5137010;27;1007;-50
2022/07/05 12:44:12;;;;;;;;;;;;;;;32.19;39.53;95079.78;5156156;27;1152;-50
2022/07/05 12:46:39;;;;;;;;;;;;;;;32.06;35.23;95068.38;5157652;27;1098;-50
2022/07/05 12:49:05;;;;;;;;;;;;;;;32.10;36.83;95060.31;5157548;27;1902;-50
2022/07/05 12:51:33;;;;;;;;;;;;;;;32.07;37.59;95061.72;5157666;27;1022;-50
2022/07/05 12:59:32;;;;;;;;;;;;;;;32.09;39.84;95073.28;5157484;27;1051;-50
2022/07/05 13:01:58;;;;;;;;;;;;;;;32.01;39.02;95068.41;5157386;27;1111;-50
2022/07/05 13:04:24;;;;;;;;;;;;;;;31.90;40.28;95066.91;5157010;27;1019;-50
2022/07/05 13:06:52;;;;;;;;;;;;;;;31.90;40.07;95067.72;5157102;27;1326;-50
2022/07/05 13:09:27;;;;;;;;;;;;;;;31.80;39.75;95064.31;5157370;27;1984;-50
2022/07/05 13:12:12;;;;;;;;;;;;;;;31.58;41.36;95067.63;5157118;27;1146;-50
2022/07/05 13:14:40;;;;;;;;;;;;;;;31.44;42.67;95064.75;5157160;27;1033;-50